X  Close Metar Aviation Weather Data     YPAD Adelaide International
Temperature
22°C Temperature
14°C Dewpoint
61% Humidity



Wind
13 KM/H
8 MPH
4 M/S
7 KTS



230°
SW
Current Conditions

Partly Cloudy Partly Cloudy
Pressure 1011.92 (hPa) - 29.88 (inHg)
Visibility 6.2 (mile) - 10 (km)
Airport
Airport-code YPAD

Location: Adelaide International
Distance: 20 (km)

Metar:
YPAD 290630Z 23007KT 9999 FEW032 22/14 Q1012 NOSIG

Time: 29-02-2020 5:00 pm ACDT